sensor_id;sensor_type;location;lat;lon;timestamp;pressure;altitude;pressure_sealevel;temperature;humidity
10832;BME280;5469;48.574;8.768;2023-02-11T00:00:25;96693.25;;;1.69;nan
10832;BME280;5469;48.574;8.768;2023-02-11T00:02:59;96713.56;;;1.59;nan
10832;BME280;5469;48.574;8.768;2023-02-11T00:05:35;96711.66;;;1.37;nan
10832;BME280;5469;48.574;8.768;2023-02-11T00:08:12;96723.28;;;1.82;nan
10832;BME280;5469;48.574;8.768;2023-02-11T00:10:53;96707.25;;;1.85;nan
10832;BME280;5469;48.574;8.768;2023-02-11T00:13:28;96700.72;;;1.81;nan
10832;BME280;5469;48.574;8.768;2023-02-11T00:16:07;96704.41;;;1.55;nan
10832;BME280;5469;48.574;8.768;2023-02-11T00:18:44;96694.94;;;1.54;nan
10832;BME280;5469;48.574;8.768;2023-02-11T00:21:21;96701.09;;;1.30;nan
10832;BME280;5469;48.574;8.768;2023-02-11T00:23:59;96697.94;;;1.43;nan
10832;BME280;5469;48.574;8.768;2023-02-11T00:26:36;96694.31;;;1.52;nan
10832;BME280;5469;48.574;8.768;2023-02-11T00:29:11;96694.69;;;1.41;nan
10832;BME280;5469;48.574;8.768;2023-02-11T00:31:46;96697.94;;;1.43;nan
10832;BME280;5469;48.574;8.768;2023-02-11T00:34:23;96701.78;;;1.55;nan
10832;BME280;5469;48.574;8.768;2023-02-11T00:36:58;96699.63;;;1.67;nan
10832;BME280;5469;48.574;8.768;2023-02-11T00:39:35;96701.56;;;1.34;nan
10832;BME280;5469;48.574;8.768;2023-02-11T00:42:13;96700.25;;;1.38;nan
10832;BME280;5469;48.574;8.768;2023-02-11T00:44:48;96699.25;;;1.39;nan
10832;BME280;5469;48.574;8.768;2023-02-11T00:47:23;96688.88;;;1.06;nan
10832;BME280;5469;48.574;8.768;2023-02-11T00:49:58;96686.81;;;0.77;nan
10832;BME280;5469;48.574;8.768;2023-02-11T00:52:34;96688.56;;;1.01;nan
10832;BME280;5469;48.574;8.768;2023-02-11T00:55:11;96692.84;;;0.94;nan
10832;BME280;5469;48.574;8.768;2023-02-11T00:57:47;96683.41;;;0.68;nan
10832;BME280;5469;48.574;8.768;2023-02-11T01:00:23;96692.84;;;0.77;nan
10832;BME280;5469;48.574;8.768;2023-02-11T01:02:58;96694.50;;;0.78;nan
10832;BME280;5469;48.574;8.768;2023-02-11T01:05:33;96686.31;;;0.57;nan
10832;BME280;5469;48.574;8.768;2023-02-11T01:08:08;96688.28;;;0.71;nan
10832;BME280;5469;48.574;8.768;2023-02-11T01:10:48;96695.38;;;1.18;nan
10832;BME280;5469;48.574;8.768;2023-02-11T01:13:29;96693.09;;;1.23;nan
10832;BME280;5469;48.574;8.768;2023-02-11T01:16:06;96688.22;;;1.12;nan
10832;BME280;5469;48.574;8.768;2023-02-11T01:18:42;96680.72;;;1.09;nan
10832;BME280;5469;48.574;8.768;2023-02-11T01:21:18;96679.13;;;0.75;nan
10832;BME280;5469;48.574;8.768;2023-02-11T01:23:54;96684.03;;;0.62;nan
10832;BME280;5469;48.574;8.768;2023-02-11T01:26:30;96676.84;;;0.80;nan
10832;BME280;5469;48.574;8.768;2023-02-11T01:29:05;96675.72;;;0.67;nan
10832;BME280;5469;48.574;8.768;2023-02-11T01:31:41;96667.59;;;0.45;nan
10832;BME280;5469;48.574;8.768;2023-02-11T01:34:19;96667.41;;;0.47;nan
10832;BME280;5469;48.574;8.768;2023-02-11T01:36:56;96670.69;;;0.65;nan
10832;BME280;5469;48.574;8.768;2023-02-11T01:39:34;96666.41;;;0.80;nan
10832;BME280;5469;48.574;8.768;2023-02-11T01:42:13;96663.47;;;0.75;nan
10832;BME280;5469;48.574;8.768;2023-02-11T01:44:51;96659.59;;;0.30;nan
10832;BME280;5469;48.574;8.768;2023-02-11T01:47:26;96654.03;;;0.33;nan
10832;BME280;5469;48.574;8.768;2023-02-11T01:50:02;96650.13;;;0.70;nan
10832;BME280;5469;48.574;8.768;2023-02-11T01:52:40;96649.16;;;0.63;nan
10832;BME280;5469;48.574;8.768;2023-02-11T01:55:16;96642.72;;;0.98;nan
10832;BME280;5469;48.574;8.768;2023-02-11T01:58:10;96637.03;;;0.95;nan
10832;BME280;5469;48.574;8.768;2023-02-11T02:00:45;96640.00;;;0.67;nan
10832;BME280;5469;48.574;8.768;2023-02-11T02:03:23;96638.91;;;0.37;nan
10832;BME280;5469;48.574;8.768;2023-02-11T02:06:02;96635.47;;;0.28;nan
10832;BME280;5469;48.574;8.768;2023-02-11T02:08:46;96622.88;;;0.73;nan
10832;BME280;5469;48.574;8.768;2023-02-11T02:11:23;96631.22;;;0.68;nan
10832;BME280;5469;48.574;8.768;2023-02-11T02:14:01;96621.09;;;0.65;nan
10832;BME280;5469;48.574;8.768;2023-02-11T02:16:37;96623.28;;;1.09;nan
10832;BME280;5469;48.574;8.768;2023-02-11T02:19:54;96620.00;;;1.15;nan
10832;BME280;5469;48.574;8.768;2023-02-11T02:22:57;96621.72;;;0.83;nan
10832;BME280;5469;48.574;8.768;2023-02-11T02:26:04;96612.53;;;0.96;nan
10832;BME280;5469;48.574;8.768;2023-02-11T02:29:00;96602.59;;;0.99;nan
10832;BME280;5469;48.574;8.768;2023-02-11T02:31:58;96614.59;;;1.08;nan
10832;BME280;5469;48.574;8.768;2023-02-11T02:34:43;96609.84;;;1.20;nan
10832;BME280;5469;48.574;8.768;2023-02-11T02:37:29;96593.22;;;1.13;nan
10832;BME280;5469;48.574;8.768;2023-02-11T02:40:11;96600.38;;;1.19;nan
10832;BME280;5469;48.574;8.768;2023-02-11T02:42:49;96598.13;;;1.08;nan
10832;BME280;5469;48.574;8.768;2023-02-11T02:45:25;96590.38;;;0.92;nan
10832;BME280;5469;48.574;8.768;2023-02-11T02:48:00;96591.75;;;0.63;nan
10832;BME280;5469;48.574;8.768;2023-02-11T02:50:38;96598.53;;;0.80;nan
10832;BME280;5469;48.574;8.768;2023-02-11T02:53:22;96596.56;;;0.99;nan
10832;BME280;5469;48.574;8.768;2023-02-11T02:56:03;96596.47;;;1.15;nan
10832;BME280;5469;48.574;8.768;2023-02-11T03:02:00;96580.72;;;1.31;nan
10832;BME280;5469;48.574;8.768;2023-02-11T03:04:41;96588.31;;;1.18;nan
10832;BME280;5469;48.574;8.768;2023-02-11T03:07:29;96588.94;;;1.20;nan
10832;BME280;5469;48.574;8.768;2023-02-11T03:10:11;96583.38;;;1.23;nan
10832;BME280;5469;48.574;8.768;2023-02-11T03:12:48;96582.03;;;1.36;nan
10832;BME280;5469;48.574;8.768;2023-02-11T03:15:28;96578.16;;;1.23;nan
10832;BME280;5469;48.574;8.768;2023-02-11T03:18:05;96581.06;;;1.28;nan
10832;BME280;5469;48.574;8.768;2023-02-11T03:20:43;96586.72;;;1.09;nan
10832;BME280;5469;48.574;8.768;2023-02-11T03:23:25;96587.97;;;0.74;nan
10832;BME280;5469;48.574;8.768;2023-02-11T03:26:06;96583.31;;;0.45;nan
10832;BME280;5469;48.574;8.768;2023-02-11T03:28:46;96584.22;;;0.76;nan
10832;BME280;5469;48.574;8.768;2023-02-11T03:31:33;96577.06;;;0.70;nan
10832;BME280;5469;48.574;8.768;2023-02-11T03:34:13;96581.31;;;0.63;nan
10832;BME280;5469;48.574;8.768;2023-02-11T03:36:52;96579.31;;;0.81;nan
10832;BME280;5469;48.574;8.768;2023-02-11T03:39:34;96581.19;;;0.96;nan
10832;BME280;5469;48.574;8.768;2023-02-11T03:42:13;96584.56;;;1.13;nan
10832;BME280;5469;48.574;8.768;2023-02-11T03:44:51;96587.38;;;1.03;nan
10832;BME280;5469;48.574;8.768;2023-02-11T03:47:30;96601.63;;;0.92;nan
10832;BME280;5469;48.574;8.768;2023-02-11T03:50:09;96602.41;;;1.09;nan
10832;BME280;5469;48.574;8.768;2023-02-11T03:52:47;96607.81;;;0.99;nan
10832;BME280;5469;48.574;8.768;2023-02-11T03:55:26;96613.84;;;1.00;nan
10832;BME280;5469;48.574;8.768;2023-02-11T03:58:02;96620.63;;;1.17;nan
10832;BME280;5469;48.574;8.768;2023-02-11T04:00:41;96604.28;;;1.23;nan
10832;BME280;5469;48.574;8.768;2023-02-11T04:03:17;96595.91;;;0.97;nan
10832;BME280;5469;48.574;8.768;2023-02-11T04:05:52;96587.16;;;0.73;nan
10832;BME280;5469;48.574;8.768;2023-02-11T04:08:27;96583.75;;;0.56;nan
10832;BME280;5469;48.574;8.768;2023-02-11T04:11:04;96584.06;;;0.61;nan
10832;BME280;5469;48.574;8.768;2023-02-11T04:13:39;96591.13;;;0.28;nan
10832;BME280;5469;48.574;8.768;2023-02-11T04:16:14;96579.09;;;0.19;nan
10832;BME280;5469;48.574;8.768;2023-02-11T04:18:49;96574.16;;;0.40;nan
10832;BME280;5469;48.574;8.768;2023-02-11T04:21:23;96574.50;;;0.37;nan
10832;BME280;5469;48.574;8.768;2023-02-11T04:23:58;96576.44;;;0.60;nan
10832;BME280;5469;48.574;8.768;2023-02-11T04:26:35;96581.03;;;0.25;nan
10832;BME280;5469;48.574;8.768;2023-02-11T04:29:11;96578.91;;;0.12;nan
10832;BME280;5469;48.574;8.768;2023-02-11T04:31:46;96586.22;;;0.50;nan
10832;BME280;5469;48.574;8.768;2023-02-11T04:34:24;96576.81;;;0.24;nan
10832;BME280;5469;48.574;8.768;2023-02-11T04:36:59;96572.22;;;0.34;nan
10832;BME280;5469;48.574;8.768;2023-02-11T04:39:34;96581.31;;;0.47;nan
10832;BME280;5469;48.574;8.768;2023-02-11T04:42:10;96593.63;;;0.94;nan
10832;BME280;5469;48.574;8.768;2023-02-11T04:44:45;96584.56;;;0.57;nan
10832;BME280;5469;48.574;8.768;2023-02-11T04:47:21;96587.81;;;0.67;nan
10832;BME280;5469;48.574;8.768;2023-02-11T04:49:56;96592.59;;;1.03;nan
10832;BME280;5469;48.574;8.768;2023-02-11T04:52:31;96583.50;;;0.91;nan
10832;BME280;5469;48.574;8.768;2023-02-11T04:55:07;96589.00;;;1.12;nan
10832;BME280;5469;48.574;8.768;2023-02-11T04:57:44;96588.25;;;0.87;nan
10832;BME280;5469;48.574;8.768;2023-02-11T05:00:20;96583.28;;;0.53;nan
10832;BME280;5469;48.574;8.768;2023-02-11T05:02:54;96583.25;;;0.61;nan
10832;BME280;5469;48.574;8.768;2023-02-11T05:05:29;96583.94;;;0.55;nan
10832;BME280;5469;48.574;8.768;2023-02-11T05:08:05;96575.72;;;0.74;nan
10832;BME280;5469;48.574;8.768;2023-02-11T05:10:42;96573.38;;;0.96;nan
10832;BME280;5469;48.574;8.768;2023-02-11T05:13:20;96567.22;;;0.80;nan
10832;BME280;5469;48.574;8.768;2023-02-11T05:15:55;96568.97;;;0.88;nan
10832;BME280;5469;48.574;8.768;2023-02-11T05:18:30;96563.94;;;0.86;nan
10832;BME280;5469;48.574;8.768;2023-02-11T05:21:09;96567.78;;;1.07;nan
10832;BME280;5469;48.574;8.768;2023-02-11T05:23:45;96576.19;;;1.25;nan
10832;BME280;5469;48.574;8.768;2023-02-11T05:26:20;96568.22;;;1.50;nan
10832;BME280;5469;48.574;8.768;2023-02-11T05:28:56;96565.00;;;1.40;nan
10832;BME280;5469;48.574;8.768;2023-02-11T05:31:31;96554.78;;;0.99;nan
10832;BME280;5469;48.574;8.768;2023-02-11T05:34:06;96548.78;;;1.21;nan
10832;BME280;5469;48.574;8.768;2023-02-11T05:36:43;96555.75;;;1.29;nan
10832;BME280;5469;48.574;8.768;2023-02-11T05:39:18;96550.97;;;1.09;nan
10832;BME280;5469;48.574;8.768;2023-02-11T05:41:53;96553.59;;;1.41;nan
10832;BME280;5469;48.574;8.768;2023-02-11T05:44:29;96547.63;;;1.24;nan
10832;BME280;5469;48.574;8.768;2023-02-11T05:47:04;96544.03;;;1.25;nan
10832;BME280;5469;48.574;8.768;2023-02-11T05:49:41;96543.13;;;1.41;nan
10832;BME280;5469;48.574;8.768;2023-02-11T05:52:16;96546.94;;;1.61;nan
10832;BME280;5469;48.574;8.768;2023-02-11T05:54:52;96535.84;;;1.59;nan
10832;BME280;5469;48.574;8.768;2023-02-11T05:57:27;96530.13;;;1.33;nan
10832;BME280;5469;48.574;8.768;2023-02-11T06:00:05;96536.47;;;1.38;nan
10832;BME280;5469;48.574;8.768;2023-02-11T06:02:40;96515.94;;;1.27;nan
10832;BME280;5469;48.574;8.768;2023-02-11T06:05:15;96505.03;;;1.23;nan
10832;BME280;5469;48.574;8.768;2023-02-11T06:07:51;96502.00;;;1.12;nan
10832;BME280;5469;48.574;8.768;2023-02-11T06:10:26;96496.38;;;1.23;nan
10832;BME280;5469;48.574;8.768;2023-02-11T06:13:03;96498.00;;;1.24;nan
10832;BME280;5469;48.574;8.768;2023-02-11T06:15:39;96504.88;;;1.48;nan
10832;BME280;5469;48.574;8.768;2023-02-11T06:18:14;96513.25;;;1.66;nan
10832;BME280;5469;48.574;8.768;2023-02-11T06:20:49;96508.75;;;1.52;nan
10832;BME280;5469;48.574;8.768;2023-02-11T06:23:24;96507.75;;;1.53;nan
10832;BME280;5469;48.574;8.768;2023-02-11T06:26:02;96510.28;;;1.69;nan
10832;BME280;5469;48.574;8.768;2023-02-11T06:28:38;96528.88;;;1.74;nan
10832;BME280;5469;48.574;8.768;2023-02-11T06:31:15;96532.09;;;2.00;nan
10832;BME280;5469;48.574;8.768;2023-02-11T06:33:50;96530.34;;;1.92;nan
10832;BME280;5469;48.574;8.768;2023-02-11T06:36:28;96535.03;;;1.82;nan
10832;BME280;5469;48.574;8.768;2023-02-11T06:39:04;96556.97;;;1.95;nan
10832;BME280;5469;48.574;8.768;2023-02-11T06:41:39;96564.97;;;2.17;nan
10832;BME280;5469;48.574;8.768;2023-02-11T06:44:15;96563.28;;;2.24;nan
10832;BME280;5469;48.574;8.768;2023-02-11T06:46:51;96560.91;;;2.14;nan
10832;BME280;5469;48.574;8.768;2023-02-11T06:49:27;96569.03;;;2.19;nan
10832;BME280;5469;48.574;8.768;2023-02-11T06:52:02;96563.44;;;2.23;nan
10832;BME280;5469;48.574;8.768;2023-02-11T06:54:38;96561.47;;;2.25;nan
10832;BME280;5469;48.574;8.768;2023-02-11T06:57:13;96560.03;;;1.99;nan
10832;BME280;5469;48.574;8.768;2023-02-11T06:59:48;96549.56;;;1.99;nan
10832;BME280;5469;48.574;8.768;2023-02-11T07:02:26;96537.16;;;2.01;nan
10832;BME280;5469;48.574;8.768;2023-02-11T07:05:00;96545.34;;;1.98;nan
10832;BME280;5469;48.574;8.768;2023-02-11T07:07:37;96551.72;;;2.18;nan
10832;BME280;5469;48.574;8.768;2023-02-11T07:10:12;96548.88;;;2.43;nan
10832;BME280;5469;48.574;8.768;2023-02-11T07:12:48;96558.97;;;2.46;nan
10832;BME280;5469;48.574;8.768;2023-02-11T07:15:22;96559.84;;;2.24;nan
10832;BME280;5469;48.574;8.768;2023-02-11T07:18:00;96556.16;;;2.33;nan
10832;BME280;5469;48.574;8.768;2023-02-11T07:20:35;96564.56;;;2.43;nan
10832;BME280;5469;48.574;8.768;2023-02-11T07:23:12;96559.53;;;2.56;nan
10832;BME280;5469;48.574;8.768;2023-02-11T07:25:47;96565.84;;;2.47;nan
10832;BME280;5469;48.574;8.768;2023-02-11T07:28:22;96566.13;;;2.67;nan
10832;BME280;5469;48.574;8.768;2023-02-11T07:30:57;96562.97;;;2.72;nan
10832;BME280;5469;48.574;8.768;2023-02-11T07:33:33;96558.09;;;2.69;nan
10832;BME280;5469;48.574;8.768;2023-02-11T07:36:12;96559.81;;;2.61;nan
10832;BME280;5469;48.574;8.768;2023-02-11T07:38:49;96566.22;;;2.44;nan
10832;BME280;5469;48.574;8.768;2023-02-11T07:41:26;96556.56;;;2.45;nan
10832;BME280;5469;48.574;8.768;2023-02-11T07:44:03;96559.13;;;2.30;nan
10832;BME280;5469;48.574;8.768;2023-02-11T07:46:38;96554.66;;;2.53;nan
10832;BME280;5469;48.574;8.768;2023-02-11T07:49:17;96556.94;;;2.71;nan
10832;BME280;5469;48.574;8.768;2023-02-11T07:51:52;96567.50;;;2.78;nan
10832;BME280;5469;48.574;8.768;2023-02-11T07:54:27;96571.91;;;2.92;nan
10832;BME280;5469;48.574;8.768;2023-02-11T07:57:02;96579.59;;;2.79;nan
10832;BME280;5469;48.574;8.768;2023-02-11T07:59:37;96594.84;;;2.90;nan
10832;BME280;5469;48.574;8.768;2023-02-11T08:02:12;96603.34;;;2.77;nan
10832;BME280;5469;48.574;8.768;2023-02-11T08:04:49;96604.31;;;2.61;nan
10832;BME280;5469;48.574;8.768;2023-02-11T08:07:24;96592.50;;;2.28;nan
10832;BME280;5469;48.574;8.768;2023-02-11T08:10:02;96586.91;;;2.31;nan
10832;BME280;5469;48.574;8.768;2023-02-11T08:12:37;96582.22;;;2.94;nan
10832;BME280;5469;48.574;8.768;2023-02-11T08:15:12;96589.09;;;3.24;nan
10832;BME280;5469;48.574;8.768;2023-02-11T08:17:47;96578.28;;;3.34;nan
10832;BME280;5469;48.574;8.768;2023-02-11T08:20:24;96565.81;;;3.36;nan
10832;BME280;5469;48.574;8.768;2023-02-11T08:22:59;96563.94;;;3.30;nan
10832;BME280;5469;48.574;8.768;2023-02-11T08:25:34;96562.25;;;3.08;nan
10832;BME280;5469;48.574;8.768;2023-02-11T08:28:09;96564.72;;;3.45;nan
10832;BME280;5469;48.574;8.768;2023-02-11T08:30:44;96555.31;;;3.72;nan
10832;BME280;5469;48.574;8.768;2023-02-11T08:33:19;96555.06;;;3.89;nan
10832;BME280;5469;48.574;8.768;2023-02-11T08:35:56;96559.63;;;3.59;nan
10832;BME280;5469;48.574;8.768;2023-02-11T08:38:31;96552.94;;;3.78;nan
10832;BME280;5469;48.574;8.768;2023-02-11T08:41:07;96549.13;;;4.02;nan
10832;BME280;5469;48.574;8.768;2023-02-11T08:43:43;96556.34;;;3.71;nan
10832;BME280;5469;48.574;8.768;2023-02-11T08:46:20;96558.84;;;3.80;nan
10832;BME280;5469;48.574;8.768;2023-02-11T08:48:56;96559.28;;;4.05;nan
10832;BME280;5469;48.574;8.768;2023-02-11T08:51:33;96560.94;;;4.12;nan
10832;BME280;5469;48.574;8.768;2023-02-11T08:54:08;96564.25;;;4.21;nan
10832;BME280;5469;48.574;8.768;2023-02-11T08:56:43;96571.28;;;3.92;nan
10832;BME280;5469;48.574;8.768;2023-02-11T08:59:20;96569.78;;;4.05;nan
10832;BME280;5469;48.574;8.768;2023-02-11T09:01:55;96561.63;;;4.21;nan
10832;BME280;5469;48.574;8.768;2023-02-11T09:04:30;96566.13;;;4.27;nan
10832;BME280;5469;48.574;8.768;2023-02-11T09:07:07;96554.75;;;4.48;nan
10832;BME280;5469;48.574;8.768;2023-02-11T09:09:42;96556.81;;;4.53;nan
10832;BME280;5469;48.574;8.768;2023-02-11T09:12:18;96556.53;;;4.13;nan
10832;BME280;5469;48.574;8.768;2023-02-11T09:14:54;96554.97;;;4.25;nan
10832;BME280;5469;48.574;8.768;2023-02-11T09:17:30;96545.13;;;4.55;nan
10832;BME280;5469;48.574;8.768;2023-02-11T09:20:06;96547.34;;;4.30;nan
10832;BME280;5469;48.574;8.768;2023-02-11T09:22:43;96549.69;;;4.75;nan
10832;BME280;5469;48.574;8.768;2023-02-11T09:25:19;96553.13;;;5.10;nan
10832;BME280;5469;48.574;8.768;2023-02-11T09:27:54;96558.56;;;5.50;nan
10832;BME280;5469;48.574;8.768;2023-02-11T09:30:30;96544.81;;;5.61;nan
10832;BME280;5469;48.574;8.768;2023-02-11T09:35:49;96555.63;;;5.32;nan
10832;BME280;5469;48.574;8.768;2023-02-11T09:38:23;96552.31;;;5.58;nan
10832;BME280;5469;48.574;8.768;2023-02-11T09:40:57;96553.09;;;5.65;nan
10832;BME280;5469;48.574;8.768;2023-02-11T09:43:35;96546.97;;;6.26;nan
10832;BME280;5469;48.574;8.768;2023-02-11T09:46:14;96556.06;;;6.43;nan
10832;BME280;5469;48.574;8.768;2023-02-11T09:48:49;96537.47;;;8.00;nan
10832;BME280;5469;48.574;8.768;2023-02-11T09:51:32;96551.97;;;8.16;nan
10832;BME280;5469;48.574;8.768;2023-02-11T09:54:12;96550.97;;;7.85;nan
10832;BME280;5469;48.574;8.768;2023-02-11T09:56:49;96542.88;;;8.37;nan
10832;BME280;5469;48.574;8.768;2023-02-11T09:59:23;96536.94;;;8.66;nan
10832;BME280;5469;48.574;8.768;2023-02-11T10:01:59;96540.25;;;8.62;nan
10832;BME280;5469;48.574;8.768;2023-02-11T10:04:45;96535.50;;;11.46;nan
10832;BME280;5469;48.574;8.768;2023-02-11T10:07:27;96528.81;;;13.02;nan
10832;BME280;5469;48.574;8.768;2023-02-11T10:10:13;96536.47;;;14.73;nan
10832;BME280;5469;48.574;8.768;2023-02-11T10:13:15;96546.25;;;12.08;nan
10832;BME280;5469;48.574;8.768;2023-02-11T10:16:00;96549.69;;;11.80;nan
10832;BME280;5469;48.574;8.768;2023-02-11T10:18:51;96554.13;;;12.03;nan
10832;BME280;5469;48.574;8.768;2023-02-11T10:21:36;96545.03;;;13.83;nan
10832;BME280;5469;48.574;8.768;2023-02-11T10:24:17;96550.81;;;12.58;nan
10832;BME280;5469;48.574;8.768;2023-02-11T10:26:52;96542.41;;;12.16;nan
10832;BME280;5469;48.574;8.768;2023-02-11T10:29:33;96535.28;;;13.06;nan
10832;BME280;5469;48.574;8.768;2023-02-11T10:32:14;96543.03;;;13.07;nan
10832;BME280;5469;48.574;8.768;2023-02-11T10:34:59;96547.47;;;10.61;nan
10832;BME280;5469;48.574;8.768;2023-02-11T10:37:33;96549.56;;;10.82;nan
10832;BME280;5469;48.574;8.768;2023-02-11T10:40:12;96537.72;;;12.40;nan
10832;BME280;5469;48.574;8.768;2023-02-11T10:42:49;96529.13;;;13.93;nan
10832;BME280;5469;48.574;8.768;2023-02-11T10:45:29;96526.31;;;14.70;nan
10832;BME280;5469;48.574;8.768;2023-02-11T10:48:05;96527.97;;;15.18;nan
10832;BME280;5469;48.574;8.768;2023-02-11T10:50:38;96528.81;;;15.34;nan
10832;BME280;5469;48.574;8.768;2023-02-11T10:53:15;96519.72;;;16.39;nan
10832;BME280;5469;48.574;8.768;2023-02-11T10:55:53;96518.34;;;17.83;nan
10832;BME280;5469;48.574;8.768;2023-02-11T10:58:30;96518.06;;;18.93;nan
10832;BME280;5469;48.574;8.768;2023-02-11T11:01:04;96523.22;;;16.86;nan
10832;BME280;5469;48.574;8.768;2023-02-11T11:03:45;96522.13;;;18.22;nan
10832;BME280;5469;48.574;8.768;2023-02-11T11:06:28;96508.97;;;18.20;nan
10832;BME280;5469;48.574;8.768;2023-02-11T11:09:02;96521.69;;;15.55;nan
10832;BME280;5469;48.574;8.768;2023-02-11T11:11:50;96511.03;;;17.29;nan
10832;BME280;5469;48.574;8.768;2023-02-11T11:14:27;96502.28;;;17.68;nan
10832;BME280;5469;48.574;8.768;2023-02-11T11:17:11;96495.81;;;22.06;nan
10832;BME280;5469;48.574;8.768;2023-02-11T11:19:52;96508.44;;;20.54;nan
10832;BME280;5469;48.574;8.768;2023-02-11T11:22:27;96488.13;;;21.35;nan
10832;BME280;5469;48.574;8.768;2023-02-11T11:25:02;96487.56;;;21.38;nan
10832;BME280;5469;48.574;8.768;2023-02-11T11:27:37;96496.31;;;22.98;nan
10832;BME280;5469;48.574;8.768;2023-02-11T11:30:16;96490.41;;;22.06;nan
10832;BME280;5469;48.574;8.768;2023-02-11T11:32:53;96490.41;;;22.06;nan
10832;BME280;5469;48.574;8.768;2023-02-11T11:35:31;96493.31;;;25.05;nan
10832;BME280;5469;48.574;8.768;2023-02-11T11:38:10;96494.19;;;23.26;nan
10832;BME280;5469;48.574;8.768;2023-02-11T11:41:14;96485.06;;;24.84;nan
10832;BME280;5469;48.574;8.768;2023-02-11T11:43:59;96494.84;;;23.32;nan
10832;BME280;5469;48.574;8.768;2023-02-11T11:46:37;96490.41;;;23.36;nan
10832;BME280;5469;48.574;8.768;2023-02-11T11:49:19;96491.91;;;21.07;nan
10832;BME280;5469;48.574;8.768;2023-02-11T11:52:01;96482.78;;;24.48;nan
10832;BME280;5469;48.574;8.768;2023-02-11T11:54:44;96481.22;;;24.94;nan
10832;BME280;5469;48.574;8.768;2023-02-11T11:57:27;96483.72;;;22.62;nan
10832;BME280;5469;48.574;8.768;2023-02-11T12:00:04;96475.28;;;25.09;nan
10832;BME280;5469;48.574;8.768;2023-02-11T12:06:08;96483.88;;;24.12;nan
10832;BME280;5469;48.574;8.768;2023-02-11T12:08:53;96476.50;;;24.73;nan
10832;BME280;5469;48.574;8.768;2023-02-11T12:11:35;96483.25;;;23.97;nan
10832;BME280;5469;48.574;8.768;2023-02-11T12:14:19;96496.94;;;25.56;nan
10832;BME280;5469;48.574;8.768;2023-02-11T12:17:02;96486.22;;;25.30;nan
10832;BME280;5469;48.574;8.768;2023-02-11T12:20:11;96483.06;;;26.63;nan
10832;BME280;5469;48.574;8.768;2023-02-11T12:22:59;96484.34;;;25.13;nan
10832;BME280;5469;48.574;8.768;2023-02-11T12:25:40;96485.13;;;24.75;nan
10832;BME280;5469;48.574;8.768;2023-02-11T12:28:28;96488.31;;;25.54;nan
10832;BME280;5469;48.574;8.768;2023-02-11T12:31:24;96479.88;;;25.17;nan
10832;BME280;5469;48.574;8.768;2023-02-11T12:34:27;96477.91;;;25.86;nan
10832;BME280;5469;48.574;8.768;2023-02-11T12:37:13;96476.19;;;27.48;nan
10832;BME280;5469;48.574;8.768;2023-02-11T12:39:53;96482.69;;;27.10;nan
10832;BME280;5469;48.574;8.768;2023-02-11T12:42:42;96484.38;;;25.72;nan
10832;BME280;5469;48.574;8.768;2023-02-11T12:45:48;96475.88;;;24.59;nan
10832;BME280;5469;48.574;8.768;2023-02-11T12:48:44;96475.56;;;21.95;nan
10832;BME280;5469;48.574;8.768;2023-02-11T12:51:29;96474.16;;;24.02;nan
10832;BME280;5469;48.574;8.768;2023-02-11T12:54:17;96461.56;;;24.50;nan
10832;BME280;5469;48.574;8.768;2023-02-11T12:56:56;96461.47;;;24.84;nan
10832;BME280;5469;48.574;8.768;2023-02-11T12:59:48;96456.38;;;25.30;nan
10832;BME280;5469;48.574;8.768;2023-02-11T13:02:29;96466.41;;;27.22;nan
10832;BME280;5469;48.574;8.768;2023-02-11T13:05:16;96467.09;;;27.43;nan
10832;BME280;5469;48.574;8.768;2023-02-11T13:07:54;96465.06;;;27.28;nan
10832;BME280;5469;48.574;8.768;2023-02-11T13:10:35;96466.56;;;26.80;nan
10832;BME280;5469;48.574;8.768;2023-02-11T13:13:20;96462.91;;;28.11;nan
10832;BME280;5469;48.574;8.768;2023-02-11T13:16:00;96460.47;;;28.94;nan
10832;BME280;5469;48.574;8.768;2023-02-11T13:18:53;96455.50;;;28.52;nan
10832;BME280;5469;48.574;8.768;2023-02-11T13:21:58;96458.63;;;27.98;nan
10832;BME280;5469;48.574;8.768;2023-02-11T13:24:43;96453.00;;;27.17;nan
10832;BME280;5469;48.574;8.768;2023-02-11T13:27:32;96451.66;;;26.32;nan
10832;BME280;5469;48.574;8.768;2023-02-11T13:30:25;96442.53;;;28.77;nan
10832;BME280;5469;48.574;8.768;2023-02-11T13:33:16;96444.28;;;28.69;nan
10832;BME280;5469;48.574;8.768;2023-02-11T13:36:20;96442.81;;;29.20;nan
10832;BME280;5469;48.574;8.768;2023-02-11T13:39:01;96435.69;;;29.15;nan
10832;BME280;5469;48.574;8.768;2023-02-11T13:41:41;96444.97;;;28.66;nan
10832;BME280;5469;48.574;8.768;2023-02-11T13:44:23;96436.66;;;27.66;nan
10832;BME280;5469;48.574;8.768;2023-02-11T13:47:02;96438.69;;;26.17;nan
10832;BME280;5469;48.574;8.768;2023-02-11T13:49:41;96450.78;;;25.26;nan
10832;BME280;5469;48.574;8.768;2023-02-11T13:52:30;96438.94;;;26.24;nan
10832;BME280;5469;48.574;8.768;2023-02-11T13:55:14;96449.06;;;25.13;nan
10832;BME280;5469;48.574;8.768;2023-02-11T13:58:18;96437.41;;;25.21;nan
10832;BME280;5469;48.574;8.768;2023-02-11T14:01:08;96456.13;;;24.32;nan
10832;BME280;5469;48.574;8.768;2023-02-11T14:04:05;96450.97;;;24.74;nan
10832;BME280;5469;48.574;8.768;2023-02-11T14:07:26;96457.81;;;25.27;nan
10832;BME280;5469;48.574;8.768;2023-02-11T14:10:51;96453.06;;;25.24;nan
10832;BME280;5469;48.574;8.768;2023-02-11T14:13:29;96442.31;;;24.90;nan
10832;BME280;5469;48.574;8.768;2023-02-11T14:16:05;96447.47;;;25.50;nan
10832;BME280;5469;48.574;8.768;2023-02-11T14:19:00;96450.91;;;23.18;nan
10832;BME280;5469;48.574;8.768;2023-02-11T14:21:41;96453.81;;;23.30;nan
10832;BME280;5469;48.574;8.768;2023-02-11T14:24:48;96455.94;;;22.48;nan
10832;BME280;5469;48.574;8.768;2023-02-11T14:27:28;96452.28;;;22.21;nan
10832;BME280;5469;48.574;8.768;2023-02-11T14:30:30;96445.94;;;24.47;nan
10832;BME280;5469;48.574;8.768;2023-02-11T14:33:38;96447.53;;;24.48;nan
10832;BME280;5469;48.574;8.768;2023-02-11T14:36:42;96449.28;;;24.52;nan
10832;BME280;5469;48.574;8.768;2023-02-11T14:39:28;96452.97;;;24.13;nan
10832;BME280;5469;48.574;8.768;2023-02-11T14:42:06;96456.16;;;23.14;nan
10832;BME280;5469;48.574;8.768;2023-02-11T14:44:52;96458.63;;;22.71;nan
10832;BME280;5469;48.574;8.768;2023-02-11T14:47:31;96463.56;;;22.46;nan
10832;BME280;5469;48.574;8.768;2023-02-11T14:50:16;96453.66;;;21.96;nan
10832;BME280;5469;48.574;8.768;2023-02-11T14:52:53;96451.69;;;20.97;nan
10832;BME280;5469;48.574;8.768;2023-02-11T14:55:32;96465.75;;;19.33;nan
10832;BME280;5469;48.574;8.768;2023-02-11T14:58:19;96458.16;;;19.59;nan
10832;BME280;5469;48.574;8.768;2023-02-11T15:00:57;96455.34;;;19.27;nan